WALL/BPN METAR and TAF weather

Enter ICAO airport designator
Station Type Date Time Source
WALL METAR 2019/06/18 12:00 UTC NOAA

WALL 181200Z 23004KT 9000 FEW020 28/25 Q1009


Station Type Date Time Source
WALL Decoded METAR 2019/06/18 12:00 UTC NOAA

Station name not available
Jun 18, 2019 - 08:00 AM EDT / 2019.06.18 1200 UTC
Wind: from the SW (230 degrees) at 5 MPH (4 KT):0
Visibility: 5 mile(s):0
Sky conditions: mostly clear
Temperature: 82 F (28 C)
Dew Point: 77 F (25 C)
Relative Humidity: 83%
Pressure (altimeter): 29.80 in. Hg (1009 hPa)
ob: WALL 181200Z 23004KT 9000 FEW020 28/25 Q1009
cycle: 12

Station Type Date Time Source
WALL TAF 2019/06/18 12:00 UTC NOAA

TAF WALL 181100Z 1812/1918 22002KT 9999 SCT018
BECMG 1821/1823 FEW017CB SCT018
TEMPO 1823/1902 32003KT 7000 -RA
BECMG 1907/1909 SCT018

Example: see airport list